createdAt,value
2023-05-24T00:00:13.922Z,86.25
2023-05-24T00:01:16.752Z,86.55
2023-05-24T00:02:20.178Z,86.30
2023-05-24T00:03:22.110Z,86.13
2023-05-24T00:04:25.825Z,86.25
2023-05-24T00:05:31.227Z,86.37
2023-05-24T00:06:37.162Z,86.34
2023-05-24T00:07:39.276Z,86.44
2023-05-24T00:08:42.304Z,86.53
2023-05-24T00:09:44.537Z,86.45
2023-05-24T00:10:48.403Z,86.05
2023-05-24T00:11:50.496Z,86.11
2023-05-24T00:12:53.849Z,86.05
2023-05-24T00:13:58.944Z,86.21
2023-05-24T00:15:01.720Z,86.22
2023-05-24T00:16:03.756Z,86.15
2023-05-24T00:17:06.846Z,86.76
2023-05-24T00:18:11.929Z,86.47
2023-05-24T00:19:18.697Z,86.35
2023-05-24T00:20:21.275Z,86.70
2023-05-24T00:21:24.247Z,86.71
2023-05-24T00:22:26.228Z,86.41
2023-05-24T00:23:29.168Z,86.68
2023-05-24T00:24:31.130Z,86.37
2023-05-24T00:25:33.908Z,86.48
2023-05-24T00:26:35.746Z,86.79
2023-05-24T00:27:38.609Z,86.92
2023-05-24T00:28:41.605Z,87.04
2023-05-24T00:29:46.290Z,87.04
2023-05-24T00:30:48.145Z,86.55
2023-05-24T00:31:51.013Z,86.54
2023-05-24T00:32:53.018Z,86.61
2023-05-24T00:33:55.958Z,86.64
2023-05-24T00:34:57.816Z,86.79
2023-05-24T00:36:00.628Z,86.61
2023-05-24T00:37:02.550Z,86.70
2023-05-24T00:38:08.346Z,86.85
2023-05-24T00:39:14.000Z,86.98
2023-05-24T00:40:18.964Z,86.64
2023-05-24T00:41:21.169Z,86.72
2023-05-24T00:42:24.400Z,86.87
2023-05-24T00:43:26.251Z,86.65
2023-05-24T00:44:29.686Z,86.54
2023-05-24T00:45:33.856Z,86.80
2023-05-24T00:46:37.878Z,87.08
2023-05-24T00:47:42.032Z,86.87
2023-05-24T00:48:46.956Z,86.83
2023-05-24T00:49:51.042Z,86.64
2023-05-24T00:50:53.540Z,86.96
2023-05-24T00:51:57.576Z,87.17
2023-05-24T00:53:01.211Z,87.32
2023-05-24T00:54:04.202Z,87.08
2023-05-24T00:55:07.827Z,86.94
2023-05-24T00:56:11.017Z,87.45
2023-05-24T00:57:14.756Z,87.08
2023-05-24T00:58:18.621Z,87.54
2023-05-24T00:59:20.507Z,87.51
2023-05-24T01:00:23.993Z,87.72
2023-05-24T01:01:31.163Z,87.93
2023-05-24T01:02:34.342Z,87.78
2023-05-24T01:03:36.426Z,87.80
2023-05-24T01:04:40.426Z,87.69
2023-05-24T01:05:42.301Z,88.30
2023-05-24T01:07:02.799Z,87.69
2023-05-24T01:08:13.192Z,87.79
2023-05-24T01:09:24.171Z,88.00
2023-05-24T01:10:33.579Z,87.68
2023-05-24T01:11:51.342Z,87.88
2023-05-24T01:13:01.430Z,87.78
2023-05-24T01:14:14.351Z,87.67
2023-05-24T01:15:24.918Z,88.13
2023-05-24T01:16:32.997Z,88.12
2023-05-24T01:17:42.747Z,88.30
2023-05-24T01:18:47.763Z,88.13
2023-05-24T01:19:54.119Z,88.04
2023-05-24T01:21:04.548Z,88.17
2023-05-24T01:22:18.020Z,88.47
2023-05-24T01:23:34.532Z,88.26
2023-05-24T01:24:48.915Z,88.51
2023-05-24T01:26:05.050Z,88.66
2023-05-24T01:27:13.809Z,88.75
2023-05-24T01:28:35.594Z,88.48
2023-05-24T01:29:56.889Z,88.29
2023-05-24T01:31:21.332Z,88.24
2023-05-24T01:32:43.480Z,88.33
2023-05-24T01:34:05.463Z,88.43
2023-05-24T01:35:26.164Z,88.15
2023-05-24T01:36:48.960Z,88.03
2023-05-24T01:38:10.935Z,88.24
2023-05-24T01:39:35.049Z,88.25
2023-05-24T01:41:00.354Z,88.22
2023-05-24T01:42:28.773Z,88.32
2023-05-24T01:43:43.814Z,88.27
2023-05-24T01:44:52.785Z,88.02
2023-05-24T01:46:01.037Z,88.18
2023-05-24T01:47:09.252Z,88.25
2023-05-24T01:48:19.488Z,88.22
2023-05-24T01:49:27.382Z,87.79
2023-05-24T01:50:34.776Z,88.00
2023-05-24T01:51:41.780Z,88.17
2023-05-24T01:52:46.815Z,88.12
2023-05-24T01:53:50.852Z,88.61
2023-05-24T01:54:53.998Z,88.54
2023-05-24T01:56:00.527Z,88.68
2023-05-24T01:57:05.687Z,88.44
2023-05-24T01:58:11.910Z,88.43
2023-05-24T01:59:15.170Z,88.45
2023-05-24T02:00:20.019Z,88.41
2023-05-24T02:01:22.157Z,88.08
2023-05-24T02:02:25.724Z,88.03
2023-05-24T02:03:28.403Z,88.10
2023-05-24T02:04:34.155Z,87.98
2023-05-24T02:05:35.961Z,88.14
2023-05-24T02:06:44.910Z,88.11
2023-05-24T02:07:49.061Z,88.26
2023-05-24T02:08:53.523Z,88.35
2023-05-24T02:09:56.643Z,88.32
2023-05-24T02:10:59.464Z,88.28
2023-05-24T02:12:05.667Z,88.45
2023-05-24T02:13:10.622Z,88.11
2023-05-24T02:14:13.428Z,88.27
2023-05-24T02:15:16.477Z,88.63
2023-05-24T02:16:18.408Z,88.51
2023-05-24T02:17:22.583Z,88.79
2023-05-24T02:18:24.597Z,89.00
2023-05-24T02:19:27.409Z,89.04
2023-05-24T02:20:31.160Z,89.21
2023-05-24T02:21:35.841Z,89.36
2023-05-24T02:22:38.690Z,89.63
2023-05-24T02:23:41.674Z,89.71
2023-05-24T02:24:43.530Z,90.24
2023-05-24T02:25:48.687Z,90.37
2023-05-24T02:26:50.568Z,90.90
2023-05-24T02:29:47.655Z,91.06
2023-05-24T02:30:49.797Z,90.92
2023-05-24T02:31:56.400Z,91.15
2023-05-24T02:33:00.734Z,90.86
2023-05-24T02:34:03.738Z,91.03
2023-05-24T02:35:06.052Z,91.09
2023-05-24T02:36:09.008Z,91.41
2023-05-24T02:37:14.800Z,91.38
2023-05-24T02:38:17.627Z,91.08
2023-05-24T02:39:20.948Z,90.83
2023-05-24T02:40:26.369Z,91.25
2023-05-24T02:41:28.208Z,91.37
2023-05-24T02:42:31.370Z,91.17
2023-05-24T02:43:33.690Z,91.05
2023-05-24T02:44:36.508Z,91.08
2023-05-24T02:45:39.692Z,91.32
2023-05-24T02:46:42.558Z,91.08
2023-05-24T02:48:03.022Z,91.06
2023-05-24T02:49:25.852Z,90.98
2023-05-24T02:50:50.319Z,90.73
2023-05-24T02:52:10.899Z,91.17
2023-05-24T02:53:32.547Z,90.67
2023-05-24T02:54:54.068Z,90.90
2023-05-24T02:56:17.208Z,90.73
2023-05-24T02:57:38.965Z,90.46
2023-05-24T02:58:59.350Z,90.47
2023-05-24T03:00:21.300Z,90.56
2023-05-24T03:01:43.316Z,90.29
2023-05-24T03:03:04.865Z,90.25
2023-05-24T03:04:27.050Z,90.02
2023-05-24T03:05:48.937Z,90.14
2023-05-24T03:07:10.745Z,90.11
2023-05-24T03:08:31.675Z,89.89
2023-05-24T03:09:57.474Z,90.16
2023-05-24T03:11:21.904Z,89.99
2023-05-24T03:12:43.338Z,89.92
2023-05-24T03:14:06.333Z,89.99
2023-05-24T03:15:27.070Z,90.31
2023-05-24T03:16:50.116Z,90.15
2023-05-24T03:18:11.874Z,89.83
2023-05-24T03:19:35.220Z,89.94
2023-05-24T03:20:56.915Z,89.78
2023-05-24T03:22:19.425Z,89.72
2023-05-24T03:23:40.095Z,89.71
2023-05-24T03:25:01.820Z,89.76
2023-05-24T03:26:22.168Z,89.33
2023-05-24T03:27:43.964Z,89.26
2023-05-24T03:29:04.593Z,89.31
2023-05-24T03:30:31.128Z,89.26
2023-05-24T03:31:55.556Z,89.76
2023-05-24T03:33:16.621Z,89.60
2023-05-24T03:34:38.271Z,89.43
2023-05-24T03:35:55.287Z,89.55
2023-05-24T03:36:59.810Z,89.35
2023-05-24T03:38:03.204Z,89.67
2023-05-24T03:39:07.760Z,89.79
2023-05-24T03:40:23.437Z,89.49
2023-05-24T03:41:32.410Z,89.56
2023-05-24T03:42:35.262Z,89.47
2023-05-24T03:43:38.094Z,89.62
2023-05-24T03:44:43.877Z,89.47
2023-05-24T03:45:46.735Z,89.31
2023-05-24T03:46:48.607Z,89.08
2023-05-24T03:47:52.860Z,89.30
2023-05-24T03:48:54.663Z,89.10
2023-05-24T03:49:58.117Z,89.36
2023-05-24T03:50:59.979Z,89.21
2023-05-24T03:52:03.218Z,89.24
2023-05-24T03:53:05.497Z,89.05
2023-05-24T03:54:08.314Z,89.11
2023-05-24T03:55:12.166Z,88.88
2023-05-24T03:56:15.061Z,89.02
2023-05-24T03:57:17.462Z,89.04
2023-05-24T03:58:20.252Z,88.69
2023-05-24T03:59:24.295Z,88.62
2023-05-24T04:00:45.808Z,88.69
2023-05-24T04:02:08.859Z,88.71
2023-05-24T04:03:34.184Z,88.41
2023-05-24T04:04:55.842Z,88.23
2023-05-24T04:06:17.668Z,88.32
2023-05-24T04:07:20.590Z,88.44
2023-05-24T04:08:22.453Z,88.62
2023-05-24T04:09:25.522Z,88.58
2023-05-24T04:10:27.675Z,88.37
2023-05-24T04:11:30.469Z,88.30
2023-05-24T04:12:32.488Z,88.38
2023-05-24T04:13:35.299Z,88.61
2023-05-24T04:14:37.178Z,88.32
2023-05-24T04:15:40.035Z,88.34
2023-05-24T04:16:42.092Z,88.07
2023-05-24T04:17:45.759Z,88.09
2023-05-24T04:18:49.204Z,88.19
2023-05-24T04:19:53.260Z,87.77
2023-05-24T04:20:56.063Z,88.12
2023-05-24T04:21:57.949Z,87.82
2023-05-24T04:23:00.868Z,87.71
2023-05-24T04:24:03.424Z,88.01
2023-05-24T04:25:07.620Z,87.69
2023-05-24T04:26:12.356Z,87.61
2023-05-24T04:27:15.227Z,87.63
2023-05-24T04:28:18.052Z,87.45
2023-05-24T04:29:20.435Z,87.67
2023-05-24T04:30:23.437Z,87.54
2023-05-24T04:31:26.301Z,87.12
2023-05-24T04:32:30.371Z,87.27
2023-05-24T04:33:32.589Z,86.96
2023-05-24T04:34:37.569Z,87.03
2023-05-24T04:35:40.734Z,87.24
2023-05-24T04:36:43.494Z,87.06
2023-05-24T04:37:48.325Z,87.24
2023-05-24T04:38:53.680Z,86.60
2023-05-24T04:39:55.865Z,86.70
2023-05-24T04:40:58.847Z,86.55
2023-05-24T04:42:00.708Z,86.79
2023-05-24T04:43:03.533Z,86.66
2023-05-24T04:44:05.589Z,86.38
2023-05-24T04:45:09.488Z,86.29
2023-05-24T04:46:11.319Z,86.50
2023-05-24T04:47:15.133Z,86.18
2023-05-24T04:48:17.606Z,86.05
2023-05-24T04:49:20.544Z,86.00
2023-05-24T04:50:24.131Z,86.14
2023-05-24T04:51:26.922Z,85.71
2023-05-24T04:52:28.756Z,85.51
2023-05-24T04:53:32.844Z,86.21
2023-05-24T04:54:34.736Z,85.77
2023-05-24T04:55:37.523Z,85.65
2023-05-24T04:56:39.349Z,85.70
2023-05-24T04:57:42.108Z,85.42
2023-05-24T04:58:43.917Z,85.21
2023-05-24T04:59:46.790Z,85.09
2023-05-24T05:01:07.415Z,85.12
2023-05-24T05:02:10.314Z,84.97
2023-05-24T05:03:13.760Z,84.86
2023-05-24T05:04:16.666Z,85.01
2023-05-24T05:05:18.632Z,85.07
2023-05-24T05:06:23.190Z,84.65
2023-05-24T05:07:24.991Z,84.97
2023-05-24T05:08:27.862Z,85.10
2023-05-24T05:09:29.700Z,84.65
2023-05-24T05:10:32.504Z,84.82
2023-05-24T05:11:34.321Z,84.73
2023-05-24T05:12:39.730Z,84.56
2023-05-24T05:13:41.538Z,84.46
2023-05-24T05:14:44.311Z,84.65
2023-05-24T05:15:46.291Z,84.02
2023-05-24T05:16:49.187Z,83.87
2023-05-24T05:17:51.299Z,83.85
2023-05-24T05:19:13.075Z,84.23
2023-05-24T05:20:15.911Z,84.20
2023-05-24T05:21:18.488Z,83.98
2023-05-24T05:22:22.706Z,83.73
2023-05-24T05:23:24.555Z,83.41
2023-05-24T05:24:28.775Z,83.58
2023-05-24T05:25:31.050Z,84.01
2023-05-24T05:26:34.518Z,83.45
2023-05-24T05:27:36.321Z,83.92
2023-05-24T05:28:39.215Z,84.04
2023-05-24T05:29:42.549Z,84.00
2023-05-24T05:30:44.491Z,83.66
2023-05-24T05:31:48.077Z,83.93
2023-05-24T05:32:50.020Z,84.34
2023-05-24T05:33:52.940Z,84.14
2023-05-24T05:34:55.736Z,84.47
2023-05-24T05:36:16.473Z,84.67
2023-05-24T05:37:39.198Z,84.96
2023-05-24T05:39:00.920Z,85.13
2023-05-24T05:40:22.822Z,85.62
2023-05-24T05:41:46.524Z,85.51
2023-05-24T05:42:52.374Z,85.77
2023-05-24T05:43:55.163Z,86.16
2023-05-24T05:44:57.383Z,86.41
2023-05-24T05:46:00.855Z,86.58
2023-05-24T05:47:04.009Z,86.51
2023-05-24T05:48:07.214Z,86.70
2023-05-24T05:49:09.584Z,86.65
2023-05-24T05:50:12.669Z,86.89
2023-05-24T05:51:14.519Z,86.91
2023-05-24T05:52:17.335Z,86.77
2023-05-24T05:53:21.107Z,86.92
2023-05-24T05:54:23.902Z,86.97
2023-05-24T05:55:25.688Z,86.93
2023-05-24T05:56:28.675Z,87.03
2023-05-24T05:57:31.515Z,87.04
2023-05-24T05:58:33.508Z,87.13
2023-05-24T05:59:36.504Z,86.97
2023-05-24T06:00:38.330Z,87.32
2023-05-24T06:01:41.419Z,87.08
2023-05-24T06:03:03.012Z,87.36
2023-05-24T06:04:05.053Z,87.41
2023-05-24T06:05:08.452Z,87.31
2023-05-24T06:06:10.330Z,87.30
2023-05-24T06:07:13.098Z,87.38
2023-05-24T06:08:14.882Z,87.31
2023-05-24T06:09:19.079Z,87.46
2023-05-24T06:10:21.269Z,87.72
2023-05-24T06:11:24.128Z,87.55
2023-05-24T06:12:27.226Z,87.63
2023-05-24T06:13:31.176Z,87.58
2023-05-24T06:14:34.481Z,87.47
2023-05-24T06:15:36.279Z,87.65
2023-05-24T06:16:41.984Z,87.68
2023-05-24T06:17:47.846Z,87.66
2023-05-24T06:19:04.619Z,87.66
2023-05-24T06:20:12.039Z,88.03
2023-05-24T06:21:14.307Z,87.89
2023-05-24T06:22:18.786Z,87.62
2023-05-24T06:23:20.792Z,87.99
2023-05-24T06:24:24.934Z,87.83
2023-05-24T06:25:30.860Z,88.08
2023-05-24T06:26:33.009Z,87.93
2023-05-24T06:27:35.834Z,87.74
2023-05-24T06:28:38.865Z,87.64
2023-05-24T06:29:40.850Z,87.52
2023-05-24T06:30:44.352Z,87.78
2023-05-24T06:31:47.380Z,87.77
2023-05-24T06:32:50.272Z,87.97
2023-05-24T06:34:03.889Z,88.01
2023-05-24T06:35:08.888Z,88.41
2023-05-24T06:36:11.893Z,88.26
2023-05-24T06:37:15.646Z,88.21
2023-05-24T06:38:17.825Z,88.21
2023-05-24T06:39:20.918Z,88.24
2023-05-24T06:40:24.100Z,88.50
2023-05-24T06:41:28.029Z,88.53
2023-05-24T06:42:30.027Z,88.70
2023-05-24T06:43:52.731Z,88.85
2023-05-24T06:45:14.950Z,88.94
2023-05-24T06:46:36.643Z,88.82
2023-05-24T06:47:58.306Z,89.02
2023-05-24T06:49:19.947Z,89.23
2023-05-24T06:50:42.820Z,89.20
2023-05-24T06:51:46.858Z,89.05
2023-05-24T06:52:49.704Z,88.82
2023-05-24T06:53:52.020Z,89.03
2023-05-24T06:54:54.781Z,89.08
2023-05-24T06:55:57.958Z,89.34
2023-05-24T06:57:00.872Z,89.36
2023-05-24T06:58:02.678Z,89.49
2023-05-24T06:59:05.936Z,89.24
2023-05-24T07:00:12.051Z,89.16
2023-05-24T07:01:17.027Z,89.22
2023-05-24T07:02:18.886Z,89.45
2023-05-24T07:03:22.015Z,89.48
2023-05-24T07:04:24.395Z,89.53
2023-05-24T07:05:27.214Z,89.51
2023-05-24T07:06:29.308Z,89.58
2023-05-24T07:07:32.580Z,89.64
2023-05-24T07:08:34.395Z,89.87
2023-05-24T07:09:42.403Z,89.89
2023-05-24T07:10:45.443Z,89.83
2023-05-24T07:11:50.127Z,89.96
2023-05-24T07:12:53.200Z,89.92
2023-05-24T07:13:55.277Z,90.21
2023-05-24T07:14:58.045Z,90.04
2023-05-24T07:16:02.157Z,90.25
2023-05-24T07:17:06.167Z,90.51
2023-05-24T07:18:08.298Z,90.62
2023-05-24T07:19:13.509Z,90.47
2023-05-24T07:20:15.933Z,90.79
2023-05-24T07:21:18.837Z,90.50
2023-05-24T07:22:20.698Z,90.59
2023-05-24T07:23:23.599Z,90.55
2023-05-24T07:24:25.504Z,90.84
2023-05-24T07:25:28.861Z,91.23
2023-05-24T07:26:30.681Z,91.20
2023-05-24T07:27:34.862Z,91.23
2023-05-24T07:28:38.812Z,91.16
2023-05-24T07:29:41.658Z,91.16
2023-05-24T07:30:43.631Z,91.49
2023-05-24T07:31:46.541Z,91.75
2023-05-24T07:32:49.874Z,91.90
2023-05-24T07:33:52.057Z,91.90
2023-05-24T07:34:55.899Z,92.28
2023-05-24T07:35:59.262Z,91.96
2023-05-24T07:37:02.234Z,91.92
2023-05-24T07:38:05.777Z,91.85
2023-05-24T07:39:09.986Z,92.07
2023-05-24T07:40:13.166Z,92.03
2023-05-24T07:41:15.077Z,92.17
2023-05-24T07:42:17.985Z,92.04
2023-05-24T07:43:21.127Z,92.10
2023-05-24T07:44:26.263Z,92.39
2023-05-24T07:45:28.104Z,91.93
2023-05-24T07:46:30.927Z,91.98
2023-05-24T07:47:33.925Z,91.85
2023-05-24T07:48:36.781Z,91.53
2023-05-24T07:49:38.943Z,91.57
2023-05-24T07:50:48.385Z,91.30
2023-05-24T07:51:51.129Z,90.78
2023-05-24T07:52:52.914Z,90.69
2023-05-24T07:53:55.919Z,90.62
2023-05-24T07:54:57.765Z,90.16
2023-05-24T07:56:00.538Z,90.19
2023-05-24T07:57:02.981Z,90.02
2023-05-24T07:58:06.416Z,89.82
2023-05-24T07:59:09.600Z,89.64
2023-05-24T08:00:15.066Z,89.46
2023-05-24T08:01:18.717Z,89.52
2023-05-24T08:02:21.608Z,89.51
2023-05-24T08:03:26.549Z,88.75
2023-05-24T08:04:29.411Z,88.66
2023-05-24T08:05:31.418Z,88.31
2023-05-24T08:06:35.059Z,88.63
2023-05-24T08:07:36.923Z,88.68
2023-05-24T08:08:40.275Z,88.57
2023-05-24T08:09:43.635Z,88.23
2023-05-24T08:10:45.583Z,87.81
2023-05-24T08:11:48.491Z,87.79
2023-05-24T08:12:51.484Z,87.75
2023-05-24T08:13:54.317Z,88.05
2023-05-24T08:14:58.084Z,88.17
2023-05-24T08:16:01.092Z,87.87
2023-05-24T08:17:22.547Z,87.88
2023-05-24T08:18:25.359Z,87.81
2023-05-24T08:19:27.340Z,87.74
2023-05-24T08:20:30.244Z,87.77
2023-05-24T08:21:33.801Z,87.38
2023-05-24T08:22:37.182Z,87.07
2023-05-24T08:23:38.982Z,87.33
2023-05-24T08:24:41.765Z,87.01
2023-05-24T08:25:44.247Z,87.49
2023-05-24T08:26:47.495Z,87.88
2023-05-24T08:27:49.328Z,87.68
2023-05-24T08:28:52.561Z,87.59
2023-05-24T08:29:56.889Z,87.63
2023-05-24T08:31:01.679Z,87.66
2023-05-24T08:32:04.220Z,87.17
2023-05-24T08:33:07.322Z,87.28
2023-05-24T08:34:09.148Z,87.23
2023-05-24T08:35:21.088Z,87.30
2023-05-24T08:36:24.863Z,86.70
2023-05-24T08:37:27.096Z,86.86
2023-05-24T08:38:29.957Z,86.69
2023-05-24T08:39:31.844Z,86.70
2023-05-24T08:40:34.794Z,86.90
2023-05-24T08:41:37.703Z,87.19
2023-05-24T08:42:41.156Z,87.21
2023-05-24T08:43:44.292Z,87.58
2023-05-24T08:44:49.361Z,87.47
2023-05-24T08:45:53.273Z,87.28
2023-05-24T08:46:57.864Z,86.95
2023-05-24T08:48:01.367Z,87.11
2023-05-24T08:49:05.321Z,87.33
2023-05-24T08:50:08.396Z,87.08
2023-05-24T08:51:11.517Z,87.39
2023-05-24T08:52:13.684Z,87.49
2023-05-24T08:53:17.345Z,87.46
2023-05-24T08:54:20.182Z,87.52
2023-05-24T08:55:23.088Z,87.24
2023-05-24T08:56:32.162Z,87.10
2023-05-24T08:57:35.824Z,87.27
2023-05-24T08:58:40.570Z,87.08
2023-05-24T08:59:44.036Z,86.98
2023-05-24T09:00:48.072Z,86.98
2023-05-24T09:01:53.653Z,87.10
2023-05-24T09:02:58.651Z,86.99
2023-05-24T09:04:01.884Z,86.82
2023-05-24T09:05:05.216Z,85.82
2023-05-24T09:06:08.880Z,86.25
2023-05-24T09:07:13.002Z,85.75
2023-05-24T09:08:18.370Z,85.88
2023-05-24T09:09:22.359Z,85.49
2023-05-24T09:10:25.456Z,85.50
2023-05-24T09:11:28.663Z,85.18
2023-05-24T09:12:38.092Z,84.40
2023-05-24T09:13:41.750Z,84.42
2023-05-24T09:14:46.078Z,83.85
2023-05-24T09:15:48.921Z,84.47
2023-05-24T09:16:51.499Z,83.98
2023-05-24T09:17:54.543Z,83.78
2023-05-24T09:18:58.671Z,83.09
2023-05-24T09:20:00.776Z,82.53
2023-05-24T09:21:03.814Z,82.54
2023-05-24T09:22:05.894Z,82.88
2023-05-24T09:23:08.906Z,82.47
2023-05-24T09:24:11.418Z,82.59
2023-05-24T09:25:15.410Z,82.30
2023-05-24T09:26:18.640Z,82.20
2023-05-24T09:27:21.650Z,81.91
2023-05-24T09:28:24.949Z,82.38
2023-05-24T09:29:27.054Z,81.93
2023-05-24T09:30:29.913Z,81.66
2023-05-24T09:31:35.687Z,81.32
2023-05-24T09:32:58.869Z,81.43
2023-05-24T09:34:03.331Z,81.42
2023-05-24T09:35:09.626Z,81.70
2023-05-24T09:36:12.637Z,81.59
2023-05-24T09:37:16.853Z,81.94
2023-05-24T09:38:20.102Z,81.52
2023-05-24T09:39:22.995Z,81.28
2023-05-24T09:40:25.812Z,81.73
2023-05-24T09:41:27.930Z,81.97
2023-05-24T09:42:32.462Z,81.88
2023-05-24T09:43:36.176Z,82.00
2023-05-24T09:44:39.098Z,82.31
2023-05-24T09:45:46.667Z,82.39
2023-05-24T09:46:48.951Z,82.12
2023-05-24T09:47:53.879Z,82.68
2023-05-24T09:48:57.149Z,82.68
2023-05-24T09:50:02.177Z,82.51
2023-05-24T09:51:05.653Z,82.86
2023-05-24T09:52:08.808Z,82.54
2023-05-24T09:53:10.731Z,82.37
2023-05-24T09:54:13.701Z,82.22
2023-05-24T09:55:17.650Z,82.24
2023-05-24T09:56:20.672Z,82.32
2023-05-24T09:57:23.770Z,82.25
2023-05-24T09:58:29.951Z,82.07
2023-05-24T09:59:34.593Z,82.28
2023-05-24T10:00:40.028Z,82.09
2023-05-24T10:01:43.724Z,82.43
2023-05-24T10:02:53.313Z,82.20
2023-05-24T10:03:57.542Z,82.44
2023-05-24T10:05:00.971Z,82.42
2023-05-24T10:06:07.766Z,82.34
2023-05-24T10:07:12.176Z,82.46
2023-05-24T10:08:15.453Z,82.57
2023-05-24T10:09:18.318Z,82.02
2023-05-24T10:10:20.649Z,82.06
2023-05-24T10:11:24.148Z,82.19
2023-05-24T10:12:27.078Z,81.65
2023-05-24T10:13:30.325Z,81.62
2023-05-24T10:14:33.895Z,81.61
2023-05-24T10:15:36.877Z,81.35
2023-05-24T10:16:39.124Z,81.58
2023-05-24T10:17:42.558Z,81.57
2023-05-24T10:18:44.644Z,81.59
2023-05-24T10:19:47.573Z,81.70
2023-05-24T10:20:52.494Z,81.14
2023-05-24T10:21:58.702Z,81.22
2023-05-24T10:23:02.194Z,80.82
2023-05-24T10:24:09.059Z,80.98
2023-05-24T10:25:16.520Z,81.28
2023-05-24T10:26:21.736Z,80.99
2023-05-24T10:27:26.888Z,80.67
2023-05-24T10:28:28.712Z,80.81
2023-05-24T10:29:53.135Z,80.85
2023-05-24T10:31:02.656Z,80.86
2023-05-24T10:32:06.749Z,81.15
2023-05-24T10:33:09.522Z,80.86
2023-05-24T10:34:14.564Z,80.03
2023-05-24T10:35:18.196Z,79.80
2023-05-24T10:36:22.728Z,79.30
2023-05-24T10:37:25.083Z,79.08
2023-05-24T10:38:27.886Z,78.74
2023-05-24T10:39:29.788Z,79.12
2023-05-24T10:40:33.067Z,79.07
2023-05-24T10:41:47.357Z,78.79
2023-05-24T10:42:54.228Z,79.11
2023-05-24T10:44:19.853Z,78.98
2023-05-24T10:45:44.883Z,78.61
2023-05-24T10:47:12.045Z,78.40
2023-05-24T10:48:40.402Z,79.11
2023-05-24T10:49:48.702Z,79.40
2023-05-24T10:50:52.061Z,79.57
2023-05-24T10:52:02.201Z,79.35
2023-05-24T10:53:13.690Z,79.41
2023-05-24T10:54:18.587Z,79.47
2023-05-24T10:55:21.442Z,79.04
2023-05-24T10:56:23.753Z,79.01
2023-05-24T10:57:28.721Z,78.61
2023-05-24T10:58:46.222Z,78.33
2023-05-24T10:59:49.215Z,78.41
2023-05-24T11:00:52.187Z,78.53
2023-05-24T11:01:59.204Z,78.56
2023-05-24T11:03:03.988Z,78.28
2023-05-24T11:04:10.042Z,78.65
2023-05-24T11:05:12.899Z,78.67
2023-05-24T11:06:20.322Z,78.14
2023-05-24T11:07:24.825Z,78.53
2023-05-24T11:08:31.736Z,78.84
2023-05-24T11:09:34.977Z,78.42
2023-05-24T11:10:38.454Z,78.09
2023-05-24T11:11:40.288Z,78.32
2023-05-24T11:12:44.888Z,78.24
2023-05-24T11:13:47.725Z,78.42
2023-05-24T11:14:52.785Z,77.97
2023-05-24T11:15:54.880Z,77.94
2023-05-24T11:16:58.474Z,77.44
2023-05-24T11:18:17.339Z,77.20
2023-05-24T11:19:21.324Z,77.43
2023-05-24T11:20:23.313Z,77.42
2023-05-24T11:21:27.634Z,77.16
2023-05-24T11:22:42.827Z,76.64
2023-05-24T11:23:44.883Z,77.18
2023-05-24T11:24:48.023Z,76.30
2023-05-24T11:25:52.203Z,76.46
2023-05-24T11:26:56.973Z,76.67
2023-05-24T11:27:59.420Z,76.69
2023-05-24T11:29:05.027Z,77.13
2023-05-24T11:30:10.666Z,77.29
2023-05-24T11:31:12.511Z,77.54
2023-05-24T11:32:19.312Z,77.32
2023-05-24T11:33:22.622Z,76.76
2023-05-24T11:34:27.304Z,76.68
2023-05-24T11:35:29.859Z,76.36
2023-05-24T11:36:33.513Z,76.10
2023-05-24T11:37:45.887Z,76.97
2023-05-24T11:38:51.154Z,76.84
2023-05-24T11:39:54.236Z,76.63
2023-05-24T11:40:58.420Z,76.30
2023-05-24T11:42:01.450Z,75.82
2023-05-24T11:43:07.480Z,75.45
2023-05-24T11:44:11.633Z,75.17
2023-05-24T11:45:15.739Z,74.07
2023-05-24T11:46:19.351Z,73.36
2023-05-24T11:47:22.983Z,72.89
2023-05-24T11:48:24.957Z,72.85
2023-05-24T11:49:28.353Z,71.89
2023-05-24T11:50:45.829Z,71.59
2023-05-24T11:52:09.680Z,71.25
2023-05-24T11:53:12.110Z,71.17
2023-05-24T11:54:16.253Z,70.67
2023-05-24T11:55:24.150Z,70.59
2023-05-24T11:56:28.889Z,70.74
2023-05-24T11:57:40.017Z,70.41
2023-05-24T11:58:45.643Z,69.87
2023-05-24T11:59:49.326Z,70.49
2023-05-24T12:00:51.600Z,70.71
2023-05-24T12:02:01.462Z,70.45
2023-05-24T12:03:07.547Z,70.55
2023-05-24T12:04:11.947Z,70.58
2023-05-24T12:05:14.417Z,70.14
2023-05-24T12:06:17.233Z,69.78
2023-05-24T12:07:20.567Z,69.71
2023-05-24T12:08:23.346Z,69.53
2023-05-24T12:09:27.740Z,69.31
2023-05-24T12:10:29.597Z,69.51
2023-05-24T12:11:32.763Z,69.19
2023-05-24T12:12:45.576Z,69.10
2023-05-24T12:13:49.343Z,68.74
2023-05-24T12:14:58.551Z,68.87
2023-05-24T12:16:02.790Z,68.68
2023-05-24T12:17:06.363Z,67.89
2023-05-24T12:18:18.660Z,68.11
2023-05-24T12:19:32.920Z,68.51
2023-05-24T12:20:36.776Z,68.06
2023-05-24T12:21:41.384Z,67.50
2023-05-24T12:22:52.335Z,67.15
2023-05-24T12:23:54.162Z,66.97
2023-05-24T12:24:58.674Z,66.92
2023-05-24T12:26:01.017Z,66.34
2023-05-24T12:27:06.821Z,66.44
2023-05-24T12:28:09.811Z,66.60
2023-05-24T12:29:12.222Z,66.51
2023-05-24T12:30:20.191Z,66.38
2023-05-24T12:31:24.565Z,66.41
2023-05-24T12:32:27.398Z,66.80
2023-05-24T12:33:31.512Z,66.63
2023-05-24T12:34:34.352Z,66.99
2023-05-24T12:35:38.990Z,66.87
2023-05-24T12:36:43.082Z,66.63
2023-05-24T12:37:45.238Z,66.99
2023-05-24T12:38:48.253Z,67.07
2023-05-24T12:39:54.783Z,67.52
2023-05-24T12:42:06.157Z,67.67
2023-05-24T12:43:08.813Z,67.91
2023-05-24T12:44:12.399Z,67.61
2023-05-24T12:45:16.017Z,67.83
2023-05-24T12:46:18.863Z,68.09
2023-05-24T12:47:21.007Z,68.30
2023-05-24T12:48:24.249Z,68.80
2023-05-24T12:49:27.874Z,68.53
2023-05-24T12:50:33.465Z,69.11
2023-05-24T12:51:36.576Z,68.90
2023-05-24T12:52:39.373Z,68.91
2023-05-24T12:53:41.500Z,68.91
2023-05-24T12:54:44.327Z,68.63
2023-05-24T12:55:46.188Z,68.11
2023-05-24T12:56:51.343Z,68.11
2023-05-24T12:57:56.734Z,68.24
2023-05-24T12:59:01.701Z,68.27
2023-05-24T13:00:07.725Z,68.32
2023-05-24T13:01:10.787Z,68.49
2023-05-24T13:02:12.953Z,68.02
2023-05-24T13:03:15.906Z,67.91
2023-05-24T13:04:18.167Z,67.94
2023-05-24T13:05:22.497Z,68.04
2023-05-24T13:06:24.784Z,68.18
2023-05-24T13:07:27.581Z,68.52
2023-05-24T13:08:30.086Z,68.12
2023-05-24T13:09:34.221Z,67.64
2023-05-24T13:10:37.235Z,67.82
2023-05-24T13:11:39.058Z,67.92
2023-05-24T13:12:43.690Z,68.12
2023-05-24T13:13:46.540Z,68.19
2023-05-24T13:14:53.183Z,68.28
2023-05-24T13:15:56.079Z,68.23
2023-05-24T13:16:58.950Z,68.21
2023-05-24T13:18:02.789Z,68.31
2023-05-24T13:19:05.661Z,68.36
2023-05-24T13:20:08.508Z,68.46
2023-05-24T13:21:12.474Z,68.33
2023-05-24T13:22:14.588Z,68.33
2023-05-24T13:23:17.490Z,68.54
2023-05-24T13:24:20.259Z,68.50
2023-05-24T13:25:23.470Z,68.25
2023-05-24T13:26:25.252Z,68.16
2023-05-24T13:27:28.402Z,68.34
2023-05-24T13:28:32.579Z,68.08
2023-05-24T13:29:45.639Z,67.81
2023-05-24T13:30:55.812Z,67.20
2023-05-24T13:31:58.976Z,67.73
2023-05-24T13:33:02.144Z,67.91
2023-05-24T13:34:04.051Z,68.00
2023-05-24T13:35:10.455Z,68.12
2023-05-24T13:36:12.530Z,68.45
2023-05-24T13:37:16.253Z,68.88
2023-05-24T13:38:19.897Z,68.82
2023-05-24T13:39:22.994Z,68.81
2023-05-24T13:40:26.132Z,68.84
2023-05-24T13:41:30.495Z,68.68
2023-05-24T13:42:34.376Z,68.25
2023-05-24T13:43:39.405Z,68.30
2023-05-24T13:44:42.540Z,68.56
2023-05-24T13:45:45.597Z,68.68
2023-05-24T13:46:48.325Z,68.48
2023-05-24T13:47:51.663Z,68.91
2023-05-24T13:48:53.527Z,68.82
2023-05-24T13:49:56.826Z,68.85
2023-05-24T13:51:00.484Z,68.88
2023-05-24T13:52:02.565Z,68.55
2023-05-24T13:53:05.872Z,68.45
2023-05-24T13:54:09.867Z,68.96
2023-05-24T13:55:15.725Z,68.68
2023-05-24T13:56:17.690Z,68.86
2023-05-24T13:57:22.668Z,68.69
2023-05-24T13:58:27.862Z,68.73
2023-05-24T13:59:32.366Z,69.00
2023-05-24T14:00:35.994Z,69.05
2023-05-24T14:01:39.392Z,69.49
2023-05-24T14:02:43.200Z,69.68
2023-05-24T14:03:45.741Z,69.21
2023-05-24T14:04:48.596Z,69.60
2023-05-24T14:05:50.633Z,69.61
2023-05-24T14:06:53.518Z,69.96
2023-05-24T14:07:56.280Z,70.18
2023-05-24T14:09:01.895Z,70.07
2023-05-24T14:10:04.938Z,69.80